Time;durP1;ratioP1;P1;durP2;ratioP2;P2;SDS_P1;SDS_P2;PMS_P1;PMS_P2;Temp;Humidity;BMP_temperature;BMP_pressure;BME280_temperature;BME280_humidity;BME280_pressure;Samples;Min_cycle;Max_cycle;Signal;HPM_P1;HPM_P2
2021/03/29 00:00:19;;;;;;;12.55;2.75;;;9.00;99.90;;;;;;5107387;28;20577;-89
2021/03/29 00:02:47;;;;;;;11.10;2.10;;;9.00;99.90;;;;;;5103712;28;20040;-90
2021/03/29 00:05:15;;;;;;;12.65;2.47;;;9.10;99.90;;;;;;5108381;28;20042;-89
2021/03/29 00:07:45;;;;;;;7.50;2.22;;;9.10;99.90;;;;;;5109452;28;20076;-89
2021/03/29 00:10:12;;;;;;;;;;;9.00;99.90;;;;;;5108435;28;20039;-89
2021/03/29 00:12:41;;;;;;;9.50;2.13;;;9.00;99.90;;;;;;5107787;28;19923;-89
2021/03/29 00:15:11;;;;;;;6.93;2.00;;;9.00;99.90;;;;;;5108629;28;20028;-89
2021/03/29 00:17:40;;;;;;;12.90;3.03;;;8.90;99.90;;;;;;5108055;28;20035;-89
2021/03/29 00:20:15;;;;;;;10.20;2.78;;;8.80;99.90;;;;;;5090604;28;20044;-90
2021/03/29 00:22:41;;;;;;;11.88;2.90;;;8.80;99.90;;;;;;5108046;28;20046;-89
2021/03/29 00:25:14;;;;;;;7.53;1.83;;;8.80;99.90;;;;;;5107099;28;20539;-90
2021/03/29 00:27:41;;;;;;;6.53;1.65;;;8.80;99.90;;;;;;5109057;28;20031;-90
2021/03/29 00:30:12;;;;;;;13.48;2.35;;;8.90;99.90;;;;;;5106312;28;20143;-90
2021/03/29 00:32:38;;;;;;;8.52;1.88;;;8.80;99.90;;;;;;5107381;28;20043;-90
2021/03/29 00:35:05;;;;;;;11.23;2.15;;;8.90;99.90;;;;;;5107270;28;20085;-90
2021/03/29 00:37:32;;;;;;;7.93;1.88;;;8.80;99.90;;;;;;5090982;28;20056;-90
2021/03/29 00:40:00;;;;;;;9.25;1.80;;;8.80;99.90;;;;;;5090281;28;20391;-90
2021/03/29 00:42:27;;;;;;;12.38;2.10;;;8.80;99.90;;;;;;5107640;28;20101;-90
2021/03/29 00:44:54;;;;;;;11.95;1.80;;;8.90;99.90;;;;;;5111859;28;20036;-90
2021/03/29 00:47:21;;;;;;;16.58;2.42;;;8.80;99.90;;;;;;5110318;28;20569;-90
2021/03/29 00:49:47;;;;;;;11.75;2.03;;;8.80;99.90;;;;;;5094439;28;20055;-89
2021/03/29 00:52:14;;;;;;;9.50;1.95;;;8.80;99.90;;;;;;5093728;28;20120;-90
2021/03/29 00:54:46;;;;;;;11.77;2.10;;;8.80;99.90;;;;;;5110996;28;20047;-89
2021/03/29 00:57:13;;;;;;;12.88;2.55;;;8.90;99.90;;;;;;5077579;28;20039;-90
2021/03/29 00:59:40;;;;;;;7.60;1.70;;;8.90;99.90;;;;;;5112956;28;20479;-90
2021/03/29 01:02:06;;;;;;;11.45;2.25;;;8.90;99.90;;;;;;5101012;28;20040;-90
2021/03/29 01:04:32;;;;;;;6.05;1.90;;;8.90;99.90;;;;;;5095082;28;20127;-92
2021/03/29 01:06:59;;;;;;;11.25;1.95;;;8.90;99.90;;;;;;5094776;28;20071;-92
2021/03/29 01:09:27;;;;;;;11.38;2.28;;;9.00;99.90;;;;;;5076255;28;20242;-90
2021/03/29 01:11:57;;;;;;;7.32;1.77;;;8.90;99.90;;;;;;5111408;28;20039;-91
2021/03/29 01:14:25;;;;;;;11.93;2.10;;;9.00;99.90;;;;;;5110207;28;20207;-90
2021/03/29 01:17:22;;;;;;;15.57;2.47;;;9.00;99.90;;;;;;5112272;28;20070;-90
2021/03/29 01:20:03;;;;;;;8.13;2.13;;;9.00;99.90;;;;;;5103772;28;20430;-90
2021/03/29 01:22:33;;;;;;;17.15;2.40;;;9.10;99.90;;;;;;5110404;28;20044;-90
2021/03/29 01:25:03;;;;;;;9.63;2.72;;;9.10;99.90;;;;;;5111482;28;20047;-91
2021/03/29 01:27:40;;;;;;;;;;;9.10;99.90;;;;;;5111835;28;20055;-91
2021/03/29 01:30:11;;;;;;;11.40;2.90;;;9.00;99.90;;;;;;5098765;28;19923;-90
2021/03/29 01:32:40;;;;;;;14.20;2.15;;;9.10;99.90;;;;;;5077480;28;20056;-91
2021/03/29 01:35:11;;;;;;;15.13;2.10;;;9.10;99.90;;;;;;5110452;28;20039;-89
2021/03/29 01:37:39;;;;;;;12.23;2.03;;;9.10;99.90;;;;;;5127906;27;20051;-92
2021/03/29 01:40:06;;;;;;;11.02;2.33;;;9.10;99.90;;;;;;5113766;27;20251;-90
2021/03/29 01:42:33;;;;;;;10.15;2.38;;;9.20;99.90;;;;;;5097229;27;20043;-91
2021/03/29 01:45:01;;;;;;;13.25;2.13;;;9.20;99.90;;;;;;5113997;27;20039;-90
2021/03/29 01:47:27;;;;;;;9.30;1.75;;;9.20;99.90;;;;;;5131679;27;20610;-91
2021/03/29 01:49:53;;;;;;;8.45;1.92;;;9.20;99.90;;;;;;5114078;27;20043;-91
2021/03/29 01:52:19;;;;;;;17.50;2.38;;;9.20;99.90;;;;;;5131006;27;20142;-91
2021/03/29 01:54:46;;;;;;;11.57;2.33;;;9.30;99.90;;;;;;5097117;27;20108;-90
2021/03/29 01:57:12;;;;;;;9.90;2.08;;;9.30;99.90;;;;;;5091807;28;20446;-91
2021/03/29 01:59:38;;;;;;;12.95;2.45;;;9.30;99.90;;;;;;5085563;28;20475;-90
2021/03/29 02:02:06;;;;;;;9.35;2.40;;;9.30;99.90;;;;;;5105671;27;20049;-91
2021/03/29 02:04:33;;;;;;;8.68;1.98;;;9.40;99.90;;;;;;5131350;27;20482;-92
2021/03/29 02:07:01;;;;;;;8.95;2.08;;;9.40;99.90;;;;;;5113700;27;20517;-92
2021/03/29 02:09:28;;;;;;;9.70;1.92;;;9.40;99.90;;;;;;5095828;27;20047;-90
2021/03/29 02:11:56;;;;;;;5.85;2.05;;;9.40;99.90;;;;;;5092798;28;20062;-92
2021/03/29 02:14:27;;;;;;;12.10;2.47;;;9.50;99.90;;;;;;5095504;27;20096;-91
2021/03/29 02:16:56;;;;;;;7.50;2.42;;;9.50;99.90;;;;;;5132139;27;20471;-92
2021/03/29 02:19:23;;;;;;;8.40;2.17;;;9.50;99.90;;;;;;5130654;27;20043;-92
2021/03/29 02:21:50;;;;;;;15.40;2.40;;;9.50;99.90;;;;;;5132319;27;20479;-92
2021/03/29 02:24:17;;;;;;;5.95;2.20;;;9.50;99.90;;;;;;5130662;27;20047;-92
2021/03/29 02:26:44;;;;;;;10.75;2.70;;;9.60;99.90;;;;;;5131584;27;20039;-91
2021/03/29 02:29:11;;;;;;;9.32;2.58;;;9.50;99.90;;;;;;5112767;27;20045;-90
2021/03/29 02:31:37;;;;;;;12.93;2.22;;;9.60;99.90;;;;;;5111875;27;20054;-91
2021/03/29 02:34:05;;;;;;;12.75;2.10;;;9.60;99.90;;;;;;5113344;27;20050;-92
2021/03/29 02:36:32;;;;;;;10.23;2.08;;;9.60;99.90;;;;;;5111730;27;20182;-91
2021/03/29 02:38:59;;;;;;;9.60;1.95;;;9.60;99.90;;;;;;5131422;27;20046;-92
2021/03/29 02:41:30;;;;;;;7.75;2.03;;;9.60;99.90;;;;;;5111873;27;20046;-90
2021/03/29 02:43:58;;;;;;;13.85;2.20;;;9.70;99.90;;;;;;5113087;27;20042;-92
2021/03/29 02:46:27;;;;;;;10.05;2.20;;;9.70;99.90;;;;;;5129852;27;20130;-92
2021/03/29 02:48:54;;;;;;;10.93;2.30;;;9.70;99.90;;;;;;5112738;27;20042;-92
2021/03/29 02:51:33;;;;;;;16.80;3.63;;;9.70;99.90;;;;;;5113533;27;20118;-92
2021/03/29 02:54:02;;;;;;;7.72;1.95;;;9.70;99.90;;;;;;5105115;28;20075;-91
2021/03/29 02:56:38;;;;;;;14.27;2.30;;;9.80;99.90;;;;;;5105803;27;20035;-91
2021/03/29 02:59:07;;;;;;;12.23;2.42;;;9.80;99.90;;;;;;5087650;28;20108;-90
2021/03/29 03:01:35;;;;;;;14.80;3.80;;;9.80;99.90;;;;;;5099558;28;20035;-90
2021/03/29 03:04:01;;;;;;;7.10;1.95;;;9.70;99.90;;;;;;5098541;27;20433;-91
2021/03/29 03:06:30;;;;;;;9.05;1.98;;;9.70;99.90;;;;;;5129885;27;20043;-93
2021/03/29 03:09:00;;;;;;;11.13;2.60;;;9.70;99.90;;;;;;5130789;27;20043;-92
2021/03/29 03:11:27;;;;;;;15.10;2.90;;;9.70;99.90;;;;;;5095757;27;20043;-90
2021/03/29 03:13:53;;;;;;;10.00;2.60;;;9.70;99.90;;;;;;5111815;27;20118;-92
2021/03/29 03:16:20;;;;;;;31.58;3.72;;;9.70;99.90;;;;;;5094772;27;20131;-91
2021/03/29 03:18:49;;;;;;;8.40;2.17;;;9.60;99.90;;;;;;5112556;27;20047;-89
2021/03/29 03:21:19;;;;;;;7.85;1.83;;;9.60;99.90;;;;;;5129903;27;20386;-89
2021/03/29 03:23:56;;;;;;;8.65;2.50;;;9.60;99.90;;;;;;5130752;27;20551;-90
2021/03/29 03:26:24;;;;;;;9.55;2.42;;;9.50;99.90;;;;;;5111165;27;20043;-90
2021/03/29 03:28:52;;;;;;;9.40;2.10;;;9.50;99.90;;;;;;5101084;28;20044;-91
2021/03/29 03:31:18;;;;;;;15.82;2.20;;;9.40;99.90;;;;;;5108453;28;20047;-90
2021/03/29 03:33:43;;;;;;;11.73;2.38;;;9.30;99.90;;;;;;5130519;27;20117;-92
2021/03/29 03:36:11;;;;;;;9.40;2.30;;;9.40;99.90;;;;;;5094571;27;20166;-92
2021/03/29 03:38:40;;;;;;;9.23;2.42;;;9.30;99.90;;;;;;5077438;28;20039;-92
2021/03/29 03:41:10;;;;;;;10.88;2.50;;;9.30;99.90;;;;;;5095491;28;20086;-91
2021/03/29 03:43:40;;;;;;;7.15;1.88;;;9.30;99.90;;;;;;5111219;28;20118;-91
2021/03/29 03:46:08;;;;;;;13.45;2.33;;;9.40;99.90;;;;;;5131051;28;20119;-91
2021/03/29 03:48:37;;;;;;;15.45;2.35;;;9.40;99.90;;;;;;5105780;28;20051;-91
2021/03/29 03:51:05;;;;;;;9.18;2.67;;;9.30;99.90;;;;;;5103292;28;20035;-91
2021/03/29 03:53:32;;;;;;;12.07;2.28;;;9.40;99.90;;;;;;5094273;28;20044;-90
2021/03/29 03:55:58;;;;;;;15.75;2.75;;;9.40;99.90;;;;;;5111782;28;20070;-90
2021/03/29 03:58:26;;;;;;;14.15;2.70;;;9.50;99.90;;;;;;5110594;28;20041;-90
2021/03/29 04:00:55;;;;;;;17.02;2.70;;;9.40;99.90;;;;;;5111620;28;20209;-91
2021/03/29 04:03:22;;;;;;;12.30;2.72;;;9.50;99.90;;;;;;5105527;28;20321;-89
2021/03/29 04:05:48;;;;;;;12.20;2.63;;;9.50;99.90;;;;;;5111888;28;20054;-90
2021/03/29 04:08:14;;;;;;;7.47;2.10;;;9.50;99.90;;;;;;5084253;28;20406;-89
2021/03/29 04:10:49;;;;;;;10.77;2.30;;;9.60;99.90;;;;;;5109756;28;20509;-90
2021/03/29 04:15:50;;;;;;;13.85;2.60;;;9.50;99.90;;;;;;5129650;28;20463;-90
2021/03/29 04:18:16;;;;;;;6.70;1.98;;;9.50;99.90;;;;;;5094728;27;20532;-91
2021/03/29 04:20:42;;;;;;;9.90;2.78;;;9.50;99.90;;;;;;5101284;28;20107;-90
2021/03/29 04:23:08;;;;;;;9.48;2.88;;;9.40;99.90;;;;;;5133434;27;20031;-92
2021/03/29 04:25:34;;;;;;;12.07;2.90;;;9.50;99.90;;;;;;5133054;27;20391;-91
2021/03/29 04:28:01;;;;;;;10.18;2.65;;;9.50;99.90;;;;;;5115371;27;20043;-91
2021/03/29 04:30:27;;;;;;;18.98;3.17;;;9.40;99.90;;;;;;5114733;27;20039;-91
2021/03/29 04:32:53;;;;;;;12.77;2.63;;;9.40;99.90;;;;;;5083840;27;20052;-91
2021/03/29 04:35:22;;;;;;;24.67;3.35;;;9.40;99.90;;;;;;5133692;27;20092;-90
2021/03/29 04:37:52;;;;;;;15.00;2.50;;;9.30;99.90;;;;;;5114547;27;20085;-91
2021/03/29 04:40:19;;;;;;;13.20;2.58;;;9.30;99.90;;;;;;5108241;28;20093;-91
2021/03/29 04:42:45;;;;;;;11.18;2.67;;;9.30;99.90;;;;;;5107956;27;20039;-92
2021/03/29 04:45:12;;;;;;;10.50;2.70;;;9.40;99.90;;;;;;5098433;27;20427;-92
2021/03/29 04:47:38;;;;;;;13.43;2.75;;;9.40;99.90;;;;;;5114482;27;20122;-91
2021/03/29 04:50:06;;;;;;;11.27;2.55;;;9.40;99.90;;;;;;5115112;27;20043;-92
2021/03/29 04:52:32;;;;;;;10.52;2.85;;;9.40;99.90;;;;;;5061356;27;20052;-90
2021/03/29 04:54:58;;;;;;;11.18;2.70;;;9.50;99.90;;;;;;5114905;27;20039;-91
2021/03/29 04:57:23;;;;;;;14.05;2.83;;;9.40;99.90;;;;;;5114829;27;20193;-89
2021/03/29 04:59:50;;;;;;;10.13;3.90;;;9.30;99.90;;;;;;5097512;27;20049;-90
2021/03/29 05:02:15;;;;;;;11.73;3.15;;;9.40;99.90;;;;;;5108367;27;20106;-91
2021/03/29 05:04:42;;;;;;;12.05;2.28;;;9.30;99.90;;;;;;5114250;27;20047;-90
2021/03/29 05:07:09;;;;;;;15.40;2.95;;;9.30;99.90;;;;;;5097873;27;20031;-91
2021/03/29 05:09:35;;;;;;;11.95;3.08;;;9.30;99.90;;;;;;5097254;27;20047;-91
2021/03/29 05:12:08;;;;;;;17.50;3.00;;;9.30;99.90;;;;;;5133284;27;20114;-90
2021/03/29 05:14:35;;;;;;;14.43;2.60;;;9.30;99.90;;;;;;5075544;28;20108;-92
2021/03/29 05:17:02;;;;;;;9.05;2.65;;;9.30;99.90;;;;;;5124035;27;20047;-90
2021/03/29 05:19:28;;;;;;;13.15;2.72;;;9.30;99.90;;;;;;5132069;27;20028;-91
2021/03/29 05:21:53;;;;;;;14.65;3.53;;;9.40;99.90;;;;;;5132746;27;20039;-90
2021/03/29 05:24:19;;;;;;;12.98;2.75;;;9.40;99.90;;;;;;5097241;27;20045;-90
2021/03/29 05:26:45;;;;;;;18.00;3.70;;;9.40;99.90;;;;;;5097118;28;20282;-90
2021/03/29 05:29:11;;;;;;;14.65;2.97;;;9.40;99.90;;;;;;5106813;27;20035;-91
2021/03/29 05:31:40;;;;;;;16.00;3.05;;;9.50;99.90;;;;;;5100026;28;20039;-91
2021/03/29 05:34:11;;;;;;;11.25;2.85;;;9.50;99.90;;;;;;5106597;27;20096;-91
2021/03/29 05:36:39;;;;;;;20.92;3.28;;;9.50;99.90;;;;;;5113311;27;20035;-91
2021/03/29 05:39:09;;;;;;;24.60;3.35;;;9.60;99.90;;;;;;5114080;27;20120;-92
2021/03/29 05:41:37;;;;;;;12.30;3.53;;;9.60;99.90;;;;;;5113456;27;20410;-92
2021/03/29 05:44:03;;;;;;;17.42;3.47;;;9.60;99.90;;;;;;5114803;27;20062;-90
2021/03/29 05:46:29;;;;;;;14.50;3.10;;;9.60;99.90;;;;;;5096238;27;20150;-89
2021/03/29 05:48:55;;;;;;;11.20;3.00;;;9.70;99.90;;;;;;5132063;27;20114;-90
2021/03/29 05:51:21;;;;;;;16.02;4.13;;;9.70;99.90;;;;;;5085844;27;20047;-91
2021/03/29 05:53:46;;;;;;;18.85;3.40;;;9.70;99.90;;;;;;5112870;27;20062;-91
2021/03/29 05:56:14;;;;;;;14.95;2.72;;;9.70;99.90;;;;;;5096835;27;20489;-91
2021/03/29 05:58:55;;;;;;;11.93;3.38;;;9.80;99.90;;;;;;5112466;27;20084;-90
2021/03/29 06:01:21;;;;;;;16.85;2.97;;;9.80;99.90;;;;;;5112872;27;20043;-89
2021/03/29 06:03:47;;;;;;;18.80;3.08;;;9.80;99.90;;;;;;5112659;27;20466;-90
2021/03/29 06:06:14;;;;;;;14.63;2.83;;;9.80;99.90;;;;;;5097008;27;20049;-90
2021/03/29 06:08:46;;;;;;;15.93;2.97;;;9.80;99.90;;;;;;5112527;27;20110;-92
2021/03/29 06:11:28;;;;;;;13.18;2.83;;;9.80;99.90;;;;;;5132040;27;20514;-92
2021/03/29 06:14:19;;;;;;;20.80;2.53;;;9.80;99.90;;;;;;5131527;27;20054;-92
2021/03/29 06:16:51;;;;;;;;;;;9.80;99.90;;;;;;5125132;27;20039;-91
2021/03/29 06:19:48;;;;;;;10.18;3.22;;;9.80;99.90;;;;;;5096303;27;19930;-90
2021/03/29 06:22:18;;;;;;;18.63;3.45;;;9.80;99.90;;;;;;5131442;27;20051;-89
2021/03/29 06:24:56;;;;;;;12.63;2.72;;;9.80;99.90;;;;;;5131070;27;20087;-91
2021/03/29 06:27:31;;;;;;;19.05;4.30;;;9.70;99.90;;;;;;5115156;27;20043;-90
2021/03/29 06:30:13;;;;;;;9.23;2.72;;;9.70;99.90;;;;;;5132691;27;20076;-89
2021/03/29 06:33:17;;;;;;;19.67;2.80;;;9.60;99.90;;;;;;5130466;27;20118;-91
2021/03/29 06:35:55;;;;;;;16.30;3.03;;;9.60;99.90;;;;;;5121403;27;20502;-91
2021/03/29 06:38:33;;;;;;;9.20;2.30;;;9.60;99.90;;;;;;5113186;27;20051;-89
2021/03/29 06:41:03;;;;;;;14.90;3.08;;;9.70;99.90;;;;;;5129928;27;20041;-89
2021/03/29 06:43:36;;;;;;;;;;;9.70;99.90;;;;;;5098984;27;20035;-89
2021/03/29 06:46:19;;;;;;;16.42;3.63;;;9.70;99.90;;;;;;5113332;27;19968;-90
2021/03/29 06:48:45;;;;;;;15.90;3.42;;;9.70;99.90;;;;;;5115651;27;20134;-90
2021/03/29 06:51:18;;;;;;;15.18;3.45;;;9.80;99.90;;;;;;5095659;27;20554;-89
2021/03/29 06:53:46;;;;;;;14.23;3.00;;;9.80;99.90;;;;;;5111731;27;20047;-90
2021/03/29 06:56:33;;;;;;;16.58;3.58;;;9.80;99.90;;;;;;5130490;27;20061;-90
2021/03/29 06:59:02;;;;;;;14.48;2.67;;;9.90;99.90;;;;;;5091918;28;20119;-91
2021/03/29 07:01:30;;;;;;;14.07;2.88;;;9.90;99.90;;;;;;5105337;27;20467;-90
2021/03/29 07:03:56;;;;;;;14.25;3.35;;;9.90;99.90;;;;;;5111323;27;20045;-91
2021/03/29 07:06:23;;;;;;;12.20;2.92;;;9.90;99.90;;;;;;5129846;27;20043;-90
2021/03/29 07:08:50;;;;;;;10.98;2.70;;;10.00;99.90;;;;;;5103834;27;20039;-91
2021/03/29 07:11:19;;;;;;;17.50;3.90;;;10.00;99.90;;;;;;5098251;27;20062;-90
2021/03/29 07:13:46;;;;;;;15.13;3.17;;;10.00;99.90;;;;;;5110745;27;20120;-91
2021/03/29 07:16:12;;;;;;;19.10;3.80;;;10.10;99.90;;;;;;5094288;28;20042;-92
2021/03/29 07:18:41;;;;;;;15.60;3.40;;;10.10;99.90;;;;;;5103272;27;20383;-88
2021/03/29 07:21:09;;;;;;;24.08;3.67;;;10.20;99.90;;;;;;5127417;27;20062;-89
2021/03/29 07:23:35;;;;;;;15.13;4.68;;;10.20;99.90;;;;;;5091444;28;20387;-88
2021/03/29 07:26:46;;;;;;;14.90;3.22;;;10.20;99.90;;;;;;5090816;28;20063;-91
2021/03/29 07:29:32;;;;;;;19.27;4.07;;;10.30;99.90;;;;;;5105605;27;20051;-91
2021/03/29 07:31:59;;;;;;;13.52;2.97;;;10.40;99.90;;;;;;5109664;28;20119;-90
2021/03/29 07:34:51;;;;;;;18.70;3.35;;;10.40;99.90;;;;;;5111499;27;20043;-91
2021/03/29 07:37:40;;;;;;;17.52;3.85;;;10.40;99.90;;;;;;5094184;27;20854;-88
2021/03/29 07:40:18;;;;;;;17.58;3.45;;;10.50;99.90;;;;;;5110622;28;20035;-88
2021/03/29 07:42:48;;;;;;;15.00;3.25;;;10.50;99.90;;;;;;5107789;28;20531;-86
2021/03/29 07:45:50;;;;;;;18.75;3.45;;;10.60;99.90;;;;;;5124606;28;20058;-87
2021/03/29 07:48:41;;;;;;;21.60;3.65;;;10.60;99.90;;;;;;5128975;28;20127;-86
2021/03/29 07:51:14;;;;;;;;;;;10.60;99.90;;;;;;5110880;28;20035;-86
2021/03/29 07:53:45;;;;;;;16.23;3.72;;;10.70;99.90;;;;;;5113151;27;19919;-85
2021/03/29 07:56:32;;;;;;;15.82;3.70;;;10.70;99.90;;;;;;5133543;27;20091;-87
2021/03/29 07:58:58;;;;;;;13.35;3.13;;;10.80;99.90;;;;;;5114518;27;20047;-86
2021/03/29 08:01:24;;;;;;;19.98;3.83;;;10.80;99.90;;;;;;5110758;28;20103;-86
2021/03/29 08:03:54;;;;;;;14.35;3.42;;;10.80;99.90;;;;;;5131664;27;20041;-86
2021/03/29 08:06:42;;;;;;;15.45;3.20;;;10.90;99.90;;;;;;5098468;27;20076;-88
2021/03/29 08:09:11;;;;;;;17.40;3.53;;;10.90;99.90;;;;;;5114750;27;20398;-87
2021/03/29 08:12:05;;;;;;;27.05;3.85;;;11.00;99.90;;;;;;5132807;27;20422;-88
2021/03/29 08:14:36;;;;;;;19.40;5.07;;;11.10;99.90;;;;;;5131347;27;20047;-86
2021/03/29 08:17:42;;;;;;;19.63;4.05;;;11.10;99.90;;;;;;5133428;27;20403;-87
2021/03/29 08:20:18;;;;;;;14.10;3.20;;;11.10;99.90;;;;;;5129785;27;20050;-87
2021/03/29 08:22:44;;;;;;;20.98;3.92;;;11.20;99.90;;;;;;5132788;27;20043;-86
2021/03/29 08:25:29;;;;;;;21.48;4.53;;;11.30;99.90;;;;;;5115180;27;20100;-90
2021/03/29 08:27:58;;;;;;;18.80;3.72;;;11.30;99.90;;;;;;5132343;27;20035;-87
2021/03/29 08:30:25;;;;;;;24.00;5.05;;;11.30;99.90;;;;;;5133043;27;20399;-88
2021/03/29 08:33:11;;;;;;;16.85;3.63;;;11.40;99.90;;;;;;5131839;27;20454;-88
2021/03/29 08:35:37;;;;;;;20.90;4.68;;;11.40;99.90;;;;;;5132778;27;20046;-88
2021/03/29 08:38:08;;;;;;;22.67;4.85;;;11.50;99.90;;;;;;5097108;27;20135;-88
2021/03/29 08:40:34;;;;;;;20.45;4.10;;;11.50;99.90;;;;;;5115013;27;20375;-87
2021/03/29 08:43:06;;;;;;;15.38;3.38;;;11.50;99.90;;;;;;5061216;27;20471;-87
2021/03/29 08:45:33;;;;;;;19.17;4.03;;;11.50;99.90;;;;;;5132615;27;20040;-88
2021/03/29 08:48:02;;;;;;;19.15;4.20;;;11.60;99.90;;;;;;5103441;27;20031;-87
2021/03/29 08:50:35;;;;;;;19.67;4.60;;;11.70;99.90;;;;;;5119502;27;20148;-87
2021/03/29 08:53:10;;;;;;;17.92;4.30;;;11.70;99.90;;;;;;5131455;27;20123;-87
2021/03/29 08:55:42;;;;;;;20.67;4.50;;;11.70;99.90;;;;;;5114284;27;20054;-87
2021/03/29 08:58:09;;;;;;;21.58;4.55;;;11.80;99.90;;;;;;5113461;27;20615;-87
2021/03/29 09:00:41;;;;;;;17.88;5.45;;;11.90;99.90;;;;;;5081435;28;20044;-87
2021/03/29 09:03:23;;;;;;;18.02;4.35;;;12.00;99.90;;;;;;5112616;27;20039;-87
2021/03/29 09:05:50;;;;;;;25.52;3.75;;;12.10;99.90;;;;;;5112410;27;20058;-90
2021/03/29 09:08:16;;;;;;;22.98;5.00;;;12.10;99.90;;;;;;5094147;28;20036;-89
2021/03/29 09:10:43;;;;;;;24.95;4.45;;;12.10;99.90;;;;;;5124811;27;20054;-88
2021/03/29 09:13:16;;;;;;;20.50;6.05;;;12.20;99.90;;;;;;5095980;27;20051;-88
2021/03/29 09:15:45;;;;;;;13.07;4.18;;;12.20;99.90;;;;;;5096199;27;20414;-88
2021/03/29 09:18:19;;;;;;;29.02;4.55;;;12.30;99.90;;;;;;5123046;27;20114;-87
2021/03/29 09:20:47;;;;;;;28.63;4.85;;;12.40;99.90;;;;;;5090873;27;20405;-87
2021/03/29 09:23:17;;;;;;;17.65;4.43;;;12.50;99.90;;;;;;5088234;28;20048;-88
2021/03/29 09:25:51;;;;;;;19.05;4.40;;;12.50;99.90;;;;;;5125004;27;20084;-87
2021/03/29 09:28:36;;;;;;;19.95;4.80;;;12.50;99.90;;;;;;5113512;27;20806;-87
2021/03/29 09:31:09;;;;;;;22.38;4.57;;;12.60;99.90;;;;;;5110471;27;20532;-87
2021/03/29 09:33:36;;;;;;;25.15;4.40;;;12.70;99.90;;;;;;5113570;27;20096;-88
2021/03/29 09:36:10;;;;;;;21.25;3.97;;;12.80;99.90;;;;;;5111668;27;20043;-87
2021/03/29 09:38:54;;;;;;;15.90;4.25;;;13.00;99.90;;;;;;5109370;27;20512;-87
2021/03/29 09:41:23;;;;;;;19.30;3.78;;;12.90;99.90;;;;;;5112791;27;20035;-87
2021/03/29 09:43:52;;;;;;;19.70;4.07;;;12.90;99.90;;;;;;5131985;27;20046;-87
2021/03/29 09:46:26;;;;;;;27.55;4.43;;;13.00;99.90;;;;;;5131127;27;20047;-87
2021/03/29 09:49:16;;;;;;;21.88;4.53;;;12.90;99.90;;;;;;5130877;27;20062;-86
2021/03/29 09:51:45;;;;;;;28.45;4.43;;;13.00;99.90;;;;;;5113562;27;20055;-87
2021/03/29 09:54:28;;;;;;;21.63;5.05;;;13.10;99.90;;;;;;5130196;27;20592;-88
2021/03/29 09:57:22;;;;;;;22.10;5.05;;;13.10;99.90;;;;;;5100934;27;20418;-87
2021/03/29 09:59:52;;;;;;;22.73;4.63;;;13.10;99.90;;;;;;5124581;27;20042;-87
2021/03/29 10:02:25;;;;;;;22.70;4.88;;;13.10;99.90;;;;;;5086170;28;20119;-88
2021/03/29 10:05:01;;;;;;;16.88;4.15;;;13.20;99.90;;;;;;5126966;27;20035;-87
2021/03/29 10:07:27;;;;;;;17.60;4.40;;;13.20;99.90;;;;;;5096182;27;20049;-87
2021/03/29 10:10:01;;;;;;;18.10;4.35;;;13.30;99.90;;;;;;5095084;27;20039;-87
2021/03/29 10:12:29;;;;;;;14.00;3.72;;;13.40;99.90;;;;;;5112512;27;20164;-88
2021/03/29 10:15:13;;;;;;;13.38;4.68;;;13.50;99.90;;;;;;5112275;27;20444;-87
2021/03/29 10:17:40;;;;;;;22.23;4.05;;;13.60;99.90;;;;;;5129660;27;20113;-90
2021/03/29 10:20:15;;;;;;;18.67;5.80;;;13.70;99.90;;;;;;5127475;27;20043;-88
2021/03/29 10:22:41;;;;;;;24.73;5.13;;;13.70;99.90;;;;;;5095171;27;20468;-88
2021/03/29 10:25:15;;;;;;;20.20;4.28;;;13.70;99.90;;;;;;5094777;27;20047;-88
2021/03/29 10:27:47;;;;;;;19.05;4.95;;;13.80;99.90;;;;;;5130446;27;20510;-87
2021/03/29 10:30:24;;;;;;;18.70;4.90;;;13.90;99.90;;;;;;5111999;27;20035;-89
2021/03/29 10:33:01;;;;;;;20.77;4.15;;;13.90;99.90;;;;;;5111228;27;20043;-87
2021/03/29 10:35:29;;;;;;;15.07;4.80;;;14.00;99.90;;;;;;5129949;27;20074;-88
2021/03/29 10:37:57;;;;;;;22.55;4.90;;;14.00;99.90;;;;;;5129122;27;20157;-88
2021/03/29 10:40:23;;;;;;;22.13;4.47;;;14.20;99.90;;;;;;5112749;27;20088;-88
2021/03/29 10:42:50;;;;;;;16.45;4.35;;;14.30;99.90;;;;;;5114362;27;20502;-89
2021/03/29 10:45:17;;;;;;;19.98;4.80;;;14.10;99.90;;;;;;5112605;27;20043;-89
2021/03/29 10:47:44;;;;;;;22.42;4.57;;;14.20;99.90;;;;;;5092463;28;20031;-89
2021/03/29 10:50:16;;;;;;;17.05;4.25;;;14.30;99.90;;;;;;5093257;28;20051;-89
2021/03/29 10:52:42;;;;;;;22.15;5.18;;;14.40;99.90;;;;;;5117835;27;20836;-88
2021/03/29 10:55:08;;;;;;;22.83;5.63;;;14.50;99.90;;;;;;5098792;27;21452;-88
2021/03/29 10:57:34;;;;;;;24.05;5.03;;;14.60;99.90;;;;;;5083031;28;20071;-88
2021/03/29 11:00:00;;;;;;;17.73;3.92;;;14.60;99.90;;;;;;5094337;27;20452;-90
2021/03/29 11:02:28;;;;;;;17.58;4.55;;;14.70;99.90;;;;;;5093619;28;20058;-90
2021/03/29 11:04:54;;;;;;;22.50;4.47;;;14.80;99.90;;;;;;5096464;27;20066;-89
2021/03/29 11:07:20;;;;;;;20.17;4.53;;;14.80;99.90;;;;;;5092570;28;20436;-89
2021/03/29 11:09:46;;;;;;;17.65;3.65;;;15.00;99.90;;;;;;5120680;27;20070;-90
2021/03/29 11:12:12;;;;;;;21.98;4.95;;;15.10;99.90;;;;;;5098624;28;20063;-90
2021/03/29 11:14:38;;;;;;;22.38;4.82;;;15.20;99.90;;;;;;5096001;28;20443;-90
2021/03/29 11:17:04;;;;;;;25.92;4.72;;;15.10;99.90;;;;;;5109117;27;21317;-89
2021/03/29 11:19:30;;;;;;;20.98;4.53;;;15.20;99.90;;;;;;5112743;27;20418;-89
2021/03/29 11:21:56;;;;;;;21.85;4.70;;;15.00;99.90;;;;;;5098571;27;20038;-88
2021/03/29 11:24:23;;;;;;;24.77;5.30;;;15.00;99.90;;;;;;5101921;27;20054;-90
2021/03/29 11:26:49;;;;;;;18.25;4.55;;;15.00;99.90;;;;;;5095384;28;20035;-90
2021/03/29 11:29:16;;;;;;;20.08;4.68;;;15.00;99.90;;;;;;5109336;27;20059;-90
2021/03/29 11:31:43;;;;;;;19.90;3.58;;;15.00;99.90;;;;;;5094568;28;20402;-90
2021/03/29 11:34:09;;;;;;;24.70;4.15;;;15.10;99.90;;;;;;5098480;28;20048;-90
2021/03/29 11:36:35;;;;;;;20.35;4.35;;;15.30;99.90;;;;;;5117193;27;20039;-89
2021/03/29 11:39:08;;;;;;;16.63;4.13;;;15.40;99.90;;;;;;5090041;28;20074;-88
2021/03/29 11:41:34;;;;;;;21.42;4.55;;;15.50;99.90;;;;;;5113790;28;20039;-90
2021/03/29 11:44:01;;;;;;;21.40;4.43;;;15.50;99.90;;;;;;5099757;28;20039;-88
2021/03/29 11:46:26;;;;;;;15.00;4.03;;;15.50;99.90;;;;;;5092611;28;20490;-90
2021/03/29 11:48:53;;;;;;;22.48;4.50;;;15.40;99.90;;;;;;5089560;28;20077;-91
2021/03/29 11:51:18;;;;;;;21.67;4.35;;;15.30;99.90;;;;;;5096451;28;20048;-90
2021/03/29 11:53:44;;;;;;;22.90;4.15;;;15.20;99.90;;;;;;5103552;28;20510;-90
2021/03/29 11:56:10;;;;;;;14.73;4.63;;;15.20;99.90;;;;;;5116190;28;20036;-90
2021/03/29 11:58:36;;;;;;;14.90;4.40;;;15.30;99.90;;;;;;5097796;28;20035;-89
2021/03/29 12:01:34;;;;;;;16.85;5.28;;;15.30;99.90;;;;;;5092407;28;20105;-89
2021/03/29 12:04:02;;;;;;;19.25;4.82;;;15.20;99.90;;;;;;5113816;28;20050;-90
2021/03/29 12:06:39;;;;;;;21.88;4.28;;;15.20;99.90;;;;;;5097582;28;20568;-89
2021/03/29 12:12:15;;;;;;;23.15;5.00;;;15.20;99.90;;;;;;5120101;28;20109;-89
2021/03/29 12:14:22;;;;;;;16.35;4.80;;;15.30;99.90;;;;;;5102205;28;20054;-90
2021/03/29 12:16:49;;;;;;;16.50;4.05;;;15.30;99.90;;;;;;5093560;28;20041;-91
2021/03/29 12:19:16;;;;;;;19.02;4.65;;;15.20;99.90;;;;;;5091887;28;20047;-89
2021/03/29 12:21:46;;;;;;;15.18;4.00;;;15.30;99.90;;;;;;5089962;28;20043;-88
2021/03/29 12:24:14;;;;;;;11.98;3.67;;;15.50;99.90;;;;;;5094046;28;20140;-90
2021/03/29 12:26:41;;;;;;;15.32;3.90;;;15.90;99.90;;;;;;5101758;28;20054;-90
2021/03/29 12:29:09;;;;;;;18.63;5.28;;;16.10;99.90;;;;;;5116947;28;20483;-89
2021/03/29 12:31:37;;;;;;;18.48;4.80;;;16.10;99.90;;;;;;5106005;28;20438;-90
2021/03/29 12:34:03;;;;;;;16.35;4.32;;;16.20;99.90;;;;;;5094527;28;20039;-90
2021/03/29 12:36:34;;;;;;;13.90;4.05;;;16.30;99.90;;;;;;5111283;28;20180;-91
2021/03/29 12:39:09;;;;;;;17.27;4.65;;;16.30;99.90;;;;;;5108828;28;20846;-90
2021/03/29 12:41:39;;;;;;;14.88;4.50;;;16.40;99.90;;;;;;5130174;27;20054;-90
2021/03/29 12:44:10;;;;;;;17.88;3.50;;;16.20;99.90;;;;;;5096260;28;20483;-89
2021/03/29 12:46:38;;;;;;;18.25;4.15;;;16.10;99.90;;;;;;5108473;27;20168;-90
2021/03/29 12:49:09;;;;;;;14.07;3.95;;;15.90;99.90;;;;;;5113562;27;20043;-91
2021/03/29 12:51:35;;;;;;;18.65;4.82;;;15.90;99.90;;;;;;5098871;27;20044;-91
2021/03/29 12:54:11;;;;;;;20.38;4.32;;;15.80;99.90;;;;;;5113500;27;20059;-89
2021/03/29 12:56:41;;;;;;;26.63;5.68;;;16.00;99.90;;;;;;5097197;27;20513;-90
2021/03/29 12:59:08;;;;;;;16.90;3.47;;;16.30;99.90;;;;;;5116203;27;20052;-89
2021/03/29 13:01:36;;;;;;;17.98;4.03;;;16.40;99.90;;;;;;5119888;27;20746;-90
2021/03/29 13:07:26;;;;;;;21.65;4.50;;;16.60;99.90;;;;;;5063008;27;20067;-89
2021/03/29 13:12:21;;;;;;;17.20;4.38;;;16.80;99.90;;;;;;5116410;27;20032;-90